sensor_id;sensor_type;location;lat;lon;timestamp;temperature;humidity
41944;DHT22;27636;52.610;13.244;2022-07-29T00:02:37;14.60;99.90
41944;DHT22;27636;52.610;13.244;2022-07-29T00:07:40;14.60;99.90
41944;DHT22;27636;52.610;13.244;2022-07-29T00:12:45;14.50;99.90
41944;DHT22;27636;52.610;13.244;2022-07-29T00:17:48;14.30;99.90
41944;DHT22;27636;52.610;13.244;2022-07-29T00:22:51;14.30;99.90
41944;DHT22;27636;52.610;13.244;2022-07-29T00:27:56;14.10;99.90
41944;DHT22;27636;52.610;13.244;2022-07-29T00:32:59;13.80;99.90
41944;DHT22;27636;52.610;13.244;2022-07-29T00:38:02;13.80;99.90
41944;DHT22;27636;52.610;13.244;2022-07-29T00:43:07;13.70;99.90
41944;DHT22;27636;52.610;13.244;2022-07-29T00:48:10;13.80;99.90
41944;DHT22;27636;52.610;13.244;2022-07-29T00:53:13;13.70;99.90
41944;DHT22;27636;52.610;13.244;2022-07-29T00:58:18;13.70;99.90
41944;DHT22;27636;52.610;13.244;2022-07-29T01:03:21;13.50;99.90
41944;DHT22;27636;52.610;13.244;2022-07-29T01:08:24;13.40;99.90
41944;DHT22;27636;52.610;13.244;2022-07-29T01:13:29;13.40;99.90
41944;DHT22;27636;52.610;13.244;2022-07-29T01:18:35;13.30;99.90
41944;DHT22;27636;52.610;13.244;2022-07-29T01:23:58;13.20;99.90
41944;DHT22;27636;52.610;13.244;2022-07-29T01:29:06;13.20;99.90
41944;DHT22;27636;52.610;13.244;2022-07-29T01:34:20;13.10;99.90
41944;DHT22;27636;52.610;13.244;2022-07-29T01:39:29;13.00;99.90
41944;DHT22;27636;52.610;13.244;2022-07-29T01:44:41;12.90;99.90
41944;DHT22;27636;52.610;13.244;2022-07-29T01:49:50;12.80;99.90
41944;DHT22;27636;52.610;13.244;2022-07-29T01:54:56;12.90;99.90
41944;DHT22;27636;52.610;13.244;2022-07-29T02:00:03;13.00;99.90
41944;DHT22;27636;52.610;13.244;2022-07-29T02:05:15;13.10;99.90
41944;DHT22;27636;52.610;13.244;2022-07-29T02:10:24;13.00;99.90
41944;DHT22;27636;52.610;13.244;2022-07-29T02:15:32;13.00;99.90
41944;DHT22;27636;52.610;13.244;2022-07-29T02:20:36;13.10;99.90
41944;DHT22;27636;52.610;13.244;2022-07-29T02:25:41;13.30;99.90
41944;DHT22;27636;52.610;13.244;2022-07-29T02:30:49;13.30;99.90
41944;DHT22;27636;52.610;13.244;2022-07-29T02:35:52;13.20;99.90
41944;DHT22;27636;52.610;13.244;2022-07-29T02:40:57;12.90;99.90
41944;DHT22;27636;52.610;13.244;2022-07-29T02:46:05;13.00;99.90
41944;DHT22;27636;52.610;13.244;2022-07-29T02:51:33;13.00;99.90
41944;DHT22;27636;52.610;13.244;2022-07-29T02:56:46;13.00;99.90
41944;DHT22;27636;52.610;13.244;2022-07-29T03:01:55;13.00;99.90
41944;DHT22;27636;52.610;13.244;2022-07-29T03:07:00;13.10;99.90
41944;DHT22;27636;52.610;13.244;2022-07-29T03:12:04;13.20;99.90
41944;DHT22;27636;52.610;13.244;2022-07-29T03:17:09;13.40;99.90
41944;DHT22;27636;52.610;13.244;2022-07-29T03:22:13;13.50;99.90
41944;DHT22;27636;52.610;13.244;2022-07-29T03:27:21;13.60;99.90
41944;DHT22;27636;52.610;13.244;2022-07-29T03:32:25;13.60;99.90
41944;DHT22;27636;52.610;13.244;2022-07-29T03:37:30;13.50;99.90
41944;DHT22;27636;52.610;13.244;2022-07-29T03:42:36;13.60;99.90
41944;DHT22;27636;52.610;13.244;2022-07-29T03:47:45;13.60;99.90
41944;DHT22;27636;52.610;13.244;2022-07-29T03:52:53;13.60;99.90
41944;DHT22;27636;52.610;13.244;2022-07-29T03:57:57;13.60;99.90
41944;DHT22;27636;52.610;13.244;2022-07-29T04:03:03;13.60;99.90
41944;DHT22;27636;52.610;13.244;2022-07-29T04:08:12;13.80;99.90
41944;DHT22;27636;52.610;13.244;2022-07-29T04:13:15;13.90;99.90
41944;DHT22;27636;52.610;13.244;2022-07-29T04:18:20;14.00;99.90
41944;DHT22;27636;52.610;13.244;2022-07-29T04:23:23;14.00;99.90
41944;DHT22;27636;52.610;13.244;2022-07-29T04:28:26;14.10;99.90
41944;DHT22;27636;52.610;13.244;2022-07-29T04:33:30;14.00;99.90
41944;DHT22;27636;52.610;13.244;2022-07-29T04:38:33;14.30;99.90
41944;DHT22;27636;52.610;13.244;2022-07-29T04:43:37;14.40;99.90
41944;DHT22;27636;52.610;13.244;2022-07-29T04:48:41;14.50;99.90
41944;DHT22;27636;52.610;13.244;2022-07-29T04:53:45;14.60;99.90
41944;DHT22;27636;52.610;13.244;2022-07-29T04:58:49;14.80;99.90
41944;DHT22;27636;52.610;13.244;2022-07-29T05:03:54;15.10;99.90
41944;DHT22;27636;52.610;13.244;2022-07-29T05:09:02;15.50;99.90
41944;DHT22;27636;52.610;13.244;2022-07-29T05:14:06;16.10;99.90
41944;DHT22;27636;52.610;13.244;2022-07-29T05:19:11;17.70;99.90
41944;DHT22;27636;52.610;13.244;2022-07-29T05:24:16;19.50;99.90
41944;DHT22;27636;52.610;13.244;2022-07-29T05:29:20;19.00;99.90
41944;DHT22;27636;52.610;13.244;2022-07-29T05:34:45;18.30;99.90
41944;DHT22;27636;52.610;13.244;2022-07-29T05:39:53;18.40;99.90
41944;DHT22;27636;52.610;13.244;2022-07-29T05:44:59;17.70;99.90
41944;DHT22;27636;52.610;13.244;2022-07-29T05:50:05;17.20;99.90
41944;DHT22;27636;52.610;13.244;2022-07-29T05:55:08;17.00;99.90
41944;DHT22;27636;52.610;13.244;2022-07-29T06:00:12;16.90;99.90
41944;DHT22;27636;52.610;13.244;2022-07-29T06:05:17;17.10;99.90
41944;DHT22;27636;52.610;13.244;2022-07-29T06:10:20;17.60;99.90
41944;DHT22;27636;52.610;13.244;2022-07-29T06:15:28;18.20;99.90
41944;DHT22;27636;52.610;13.244;2022-07-29T06:20:33;18.60;99.90
41944;DHT22;27636;52.610;13.244;2022-07-29T06:25:36;19.60;99.90
41944;DHT22;27636;52.610;13.244;2022-07-29T06:30:39;19.30;99.30
41944;DHT22;27636;52.610;13.244;2022-07-29T06:35:45;18.80;99.90
41944;DHT22;27636;52.610;13.244;2022-07-29T06:40:57;18.40;99.90
41944;DHT22;27636;52.610;13.244;2022-07-29T06:46:05;18.30;99.90
41944;DHT22;27636;52.610;13.244;2022-07-29T06:51:11;18.50;99.90
41944;DHT22;27636;52.610;13.244;2022-07-29T06:56:14;18.70;99.90
41944;DHT22;27636;52.610;13.244;2022-07-29T07:01:17;19.10;99.90
41944;DHT22;27636;52.610;13.244;2022-07-29T07:06:21;20.10;98.20
41944;DHT22;27636;52.610;13.244;2022-07-29T07:11:25;21.00;95.60
41944;DHT22;27636;52.610;13.244;2022-07-29T07:16:28;20.60;94.40
41944;DHT22;27636;52.610;13.244;2022-07-29T07:21:33;20.90;95.00
41944;DHT22;27636;52.610;13.244;2022-07-29T07:26:37;22.80;88.90
41944;DHT22;27636;52.610;13.244;2022-07-29T07:31:42;24.80;78.90
41944;DHT22;27636;52.610;13.244;2022-07-29T07:36:47;24.80;74.00
41944;DHT22;27636;52.610;13.244;2022-07-29T07:41:50;25.00;73.60
41944;DHT22;27636;52.610;13.244;2022-07-29T07:46:53;25.00;72.10
41944;DHT22;27636;52.610;13.244;2022-07-29T07:51:58;25.80;70.20
41944;DHT22;27636;52.610;13.244;2022-07-29T07:57:01;26.20;66.30
41944;DHT22;27636;52.610;13.244;2022-07-29T08:02:04;26.50;68.10
41944;DHT22;27636;52.610;13.244;2022-07-29T08:07:09;26.20;65.00
41944;DHT22;27636;52.610;13.244;2022-07-29T08:12:12;25.90;65.90
41944;DHT22;27636;52.610;13.244;2022-07-29T08:17:15;25.80;66.80
41944;DHT22;27636;52.610;13.244;2022-07-29T08:22:20;26.80;63.00
41944;DHT22;27636;52.610;13.244;2022-07-29T08:27:23;27.70;60.90
41944;DHT22;27636;52.610;13.244;2022-07-29T08:32:45;28.40;59.20
41944;DHT22;27636;52.610;13.244;2022-07-29T08:37:57;29.40;56.70
41944;DHT22;27636;52.610;13.244;2022-07-29T08:43:05;30.20;58.10
41944;DHT22;27636;52.610;13.244;2022-07-29T08:48:09;30.20;51.50
41944;DHT22;27636;52.610;13.244;2022-07-29T08:53:15;29.60;53.00
41944;DHT22;27636;52.610;13.244;2022-07-29T08:58:18;29.50;50.10
41944;DHT22;27636;52.610;13.244;2022-07-29T09:03:30;29.90;47.10
41944;DHT22;27636;52.610;13.244;2022-07-29T09:08:35;30.00;48.60
41944;DHT22;27636;52.610;13.244;2022-07-29T09:13:38;29.70;47.10
41944;DHT22;27636;52.610;13.244;2022-07-29T09:18:43;30.50;47.20
41944;DHT22;27636;52.610;13.244;2022-07-29T09:24:05;30.00;45.10
41944;DHT22;27636;52.610;13.244;2022-07-29T09:29:11;29.40;47.50
41944;DHT22;27636;52.610;13.244;2022-07-29T09:34:16;30.20;44.30
41944;DHT22;27636;52.610;13.244;2022-07-29T09:39:31;29.90;46.40
41944;DHT22;27636;52.610;13.244;2022-07-29T09:44:43;29.60;45.90
41944;DHT22;27636;52.610;13.244;2022-07-29T09:49:55;29.30;45.80
41944;DHT22;27636;52.610;13.244;2022-07-29T09:55:10;29.20;45.20
41944;DHT22;27636;52.610;13.244;2022-07-29T10:00:20;29.90;44.10
41944;DHT22;27636;52.610;13.244;2022-07-29T10:05:27;30.30;42.70
41944;DHT22;27636;52.610;13.244;2022-07-29T10:10:41;31.00;41.50
41944;DHT22;27636;52.610;13.244;2022-07-29T10:15:45;31.10;40.00
41944;DHT22;27636;52.610;13.244;2022-07-29T10:20:49;31.40;40.30
41944;DHT22;27636;52.610;13.244;2022-07-29T10:25:54;31.60;39.20
41944;DHT22;27636;52.610;13.244;2022-07-29T10:31:01;30.00;40.40
41944;DHT22;27636;52.610;13.244;2022-07-29T10:36:17;28.20;45.10
41944;DHT22;27636;52.610;13.244;2022-07-29T10:41:51;27.70;46.10
41944;DHT22;27636;52.610;13.244;2022-07-29T10:46:58;27.10;47.40
41944;DHT22;27636;52.610;13.244;2022-07-29T10:52:04;27.30;47.70
41944;DHT22;27636;52.610;13.244;2022-07-29T10:57:15;27.60;47.30
41944;DHT22;27636;52.610;13.244;2022-07-29T11:02:41;27.60;46.70
41944;DHT22;27636;52.610;13.244;2022-07-29T11:13:49;28.40;44.40
41944;DHT22;27636;52.610;13.244;2022-07-29T11:19:20;29.10;43.70
41944;DHT22;27636;52.610;13.244;2022-07-29T11:24:32;29.90;41.70
41944;DHT22;27636;52.610;13.244;2022-07-29T11:29:47;29.70;43.30
41944;DHT22;27636;52.610;13.244;2022-07-29T11:35:16;29.60;45.20
41944;DHT22;27636;52.610;13.244;2022-07-29T11:40:21;28.80;43.40
41944;DHT22;27636;52.610;13.244;2022-07-29T11:45:27;29.40;43.10
41944;DHT22;27636;52.610;13.244;2022-07-29T11:50:47;30.50;43.00
41944;DHT22;27636;52.610;13.244;2022-07-29T11:55:54;30.50;42.60
41944;DHT22;27636;52.610;13.244;2022-07-29T12:01:01;30.70;43.30
41944;DHT22;27636;52.610;13.244;2022-07-29T12:06:12;30.10;42.70
41944;DHT22;27636;52.610;13.244;2022-07-29T12:11:18;29.60;45.50
41944;DHT22;27636;52.610;13.244;2022-07-29T12:16:34;30.50;42.20
41944;DHT22;27636;52.610;13.244;2022-07-29T12:21:44;31.20;43.00
41944;DHT22;27636;52.610;13.244;2022-07-29T12:27:01;31.70;42.60
41944;DHT22;27636;52.610;13.244;2022-07-29T12:32:06;31.20;42.30
41944;DHT22;27636;52.610;13.244;2022-07-29T12:37:21;31.00;43.60
41944;DHT22;27636;52.610;13.244;2022-07-29T12:43:05;31.70;44.00
41944;DHT22;27636;52.610;13.244;2022-07-29T12:48:11;30.80;44.00
41944;DHT22;27636;52.610;13.244;2022-07-29T12:53:14;30.80;45.70
41944;DHT22;27636;52.610;13.244;2022-07-29T12:58:27;31.60;45.00
41944;DHT22;27636;52.610;13.244;2022-07-29T13:03:51;31.80;42.90
41944;DHT22;27636;52.610;13.244;2022-07-29T13:09:08;32.10;43.00
41944;DHT22;27636;52.610;13.244;2022-07-29T13:14:13;32.00;44.50
41944;DHT22;27636;52.610;13.244;2022-07-29T13:19:18;29.80;47.60
41944;DHT22;27636;52.610;13.244;2022-07-29T13:24:21;29.80;47.70
41944;DHT22;27636;52.610;13.244;2022-07-29T13:29:24;29.70;47.80
41944;DHT22;27636;52.610;13.244;2022-07-29T13:34:34;29.40;48.90
41944;DHT22;27636;52.610;13.244;2022-07-29T13:39:38;30.00;48.60
41944;DHT22;27636;52.610;13.244;2022-07-29T13:44:41;29.50;48.60
41944;DHT22;27636;52.610;13.244;2022-07-29T13:49:46;30.30;48.90
41944;DHT22;27636;52.610;13.244;2022-07-29T13:54:49;30.60;47.10
41944;DHT22;27636;52.610;13.244;2022-07-29T13:59:52;29.50;47.70
41944;DHT22;27636;52.610;13.244;2022-07-29T14:04:57;29.20;50.20
41944;DHT22;27636;52.610;13.244;2022-07-29T14:10:01;29.80;49.70
41944;DHT22;27636;52.610;13.244;2022-07-29T14:15:05;29.90;47.80
41944;DHT22;27636;52.610;13.244;2022-07-29T14:20:10;30.60;46.90
41944;DHT22;27636;52.610;13.244;2022-07-29T14:25:13;31.00;46.10
41944;DHT22;27636;52.610;13.244;2022-07-29T14:30:17;30.90;46.40
41944;DHT22;27636;52.610;13.244;2022-07-29T14:35:22;29.70;49.60
41944;DHT22;27636;52.610;13.244;2022-07-29T14:40:25;29.00;50.10
41944;DHT22;27636;52.610;13.244;2022-07-29T14:45:28;29.50;49.00
41944;DHT22;27636;52.610;13.244;2022-07-29T14:50:33;30.30;48.10
41944;DHT22;27636;52.610;13.244;2022-07-29T14:55:37;31.30;45.90
41944;DHT22;27636;52.610;13.244;2022-07-29T15:00:40;31.30;45.80
41944;DHT22;27636;52.610;13.244;2022-07-29T15:05:45;31.10;44.60
41944;DHT22;27636;52.610;13.244;2022-07-29T15:10:49;30.50;46.00
41944;DHT22;27636;52.610;13.244;2022-07-29T15:15:53;30.30;46.80
41944;DHT22;27636;52.610;13.244;2022-07-29T15:21:03;29.60;47.30
41944;DHT22;27636;52.610;13.244;2022-07-29T15:26:06;29.30;48.70
41944;DHT22;27636;52.610;13.244;2022-07-29T15:31:09;28.60;49.30
41944;DHT22;27636;52.610;13.244;2022-07-29T15:36:14;28.00;51.10
41944;DHT22;27636;52.610;13.244;2022-07-29T15:41:37;28.60;50.70
41944;DHT22;27636;52.610;13.244;2022-07-29T15:46:40;29.50;47.00
41944;DHT22;27636;52.610;13.244;2022-07-29T15:52:06;29.80;46.70
41944;DHT22;27636;52.610;13.244;2022-07-29T15:57:09;29.50;48.50
41944;DHT22;27636;52.610;13.244;2022-07-29T16:02:12;29.40;47.60
41944;DHT22;27636;52.610;13.244;2022-07-29T16:07:17;28.70;48.70
41944;DHT22;27636;52.610;13.244;2022-07-29T16:12:20;28.80;50.00
41944;DHT22;27636;52.610;13.244;2022-07-29T16:17:23;28.80;49.10
41944;DHT22;27636;52.610;13.244;2022-07-29T16:22:28;29.00;48.90
41944;DHT22;27636;52.610;13.244;2022-07-29T16:27:31;28.90;49.00
41944;DHT22;27636;52.610;13.244;2022-07-29T16:32:40;29.30;48.40
41944;DHT22;27636;52.610;13.244;2022-07-29T16:37:44;28.60;49.20
41944;DHT22;27636;52.610;13.244;2022-07-29T16:42:47;27.90;50.30
41944;DHT22;27636;52.610;13.244;2022-07-29T16:47:53;27.40;51.00
41944;DHT22;27636;52.610;13.244;2022-07-29T16:53:04;27.20;52.50
41944;DHT22;27636;52.610;13.244;2022-07-29T16:58:07;27.50;51.80
41944;DHT22;27636;52.610;13.244;2022-07-29T17:03:10;27.70;51.60
41944;DHT22;27636;52.610;13.244;2022-07-29T17:08:16;27.60;51.20
41944;DHT22;27636;52.610;13.244;2022-07-29T17:13:19;27.30;51.50
41944;DHT22;27636;52.610;13.244;2022-07-29T17:18:22;27.00;52.60
41944;DHT22;27636;52.610;13.244;2022-07-29T17:23:28;26.70;53.80
41944;DHT22;27636;52.610;13.244;2022-07-29T17:28:31;26.50;53.20
41944;DHT22;27636;52.610;13.244;2022-07-29T17:33:34;26.30;54.70
41944;DHT22;27636;52.610;13.244;2022-07-29T17:38:39;26.20;53.60
41944;DHT22;27636;52.610;13.244;2022-07-29T17:43:44;26.00;54.50
41944;DHT22;27636;52.610;13.244;2022-07-29T17:48:47;25.90;54.40
41944;DHT22;27636;52.610;13.244;2022-07-29T17:53:53;25.90;54.40
41944;DHT22;27636;52.610;13.244;2022-07-29T17:58:57;25.60;55.10
41944;DHT22;27636;52.610;13.244;2022-07-29T18:04:03;25.40;55.10
41944;DHT22;27636;52.610;13.244;2022-07-29T18:09:08;25.20;55.00
41944;DHT22;27636;52.610;13.244;2022-07-29T18:14:11;25.00;55.70
41944;DHT22;27636;52.610;13.244;2022-07-29T18:19:14;24.90;55.90
41944;DHT22;27636;52.610;13.244;2022-07-29T18:24:19;24.80;56.10
41944;DHT22;27636;52.610;13.244;2022-07-29T18:29:22;24.60;56.50
41944;DHT22;27636;52.610;13.244;2022-07-29T18:34:25;24.40;57.00
41944;DHT22;27636;52.610;13.244;2022-07-29T18:39:30;24.30;57.50
41944;DHT22;27636;52.610;13.244;2022-07-29T18:44:33;24.00;58.20
41944;DHT22;27636;52.610;13.244;2022-07-29T18:49:46;23.90;58.90
41944;DHT22;27636;52.610;13.244;2022-07-29T18:54:51;23.50;59.30
41944;DHT22;27636;52.610;13.244;2022-07-29T18:59:54;23.30;60.20
41944;DHT22;27636;52.610;13.244;2022-07-29T19:04:59;23.30;60.20
41944;DHT22;27636;52.610;13.244;2022-07-29T19:10:05;23.30;60.90
41944;DHT22;27636;52.610;13.244;2022-07-29T19:15:09;23.20;60.20
41944;DHT22;27636;52.610;13.244;2022-07-29T19:20:12;23.20;60.80
41944;DHT22;27636;52.610;13.244;2022-07-29T19:25:17;23.10;60.60
41944;DHT22;27636;52.610;13.244;2022-07-29T19:30:21;22.90;61.10
41944;DHT22;27636;52.610;13.244;2022-07-29T19:35:25;22.80;61.50
41944;DHT22;27636;52.610;13.244;2022-07-29T19:40:35;22.70;62.20
41944;DHT22;27636;52.610;13.244;2022-07-29T19:45:38;22.50;63.30
41944;DHT22;27636;52.610;13.244;2022-07-29T19:50:42;22.20;64.60
41944;DHT22;27636;52.610;13.244;2022-07-29T19:55:46;21.90;65.20
41944;DHT22;27636;52.610;13.244;2022-07-29T20:00:50;21.90;65.40
41944;DHT22;27636;52.610;13.244;2022-07-29T20:05:53;21.90;65.80
41944;DHT22;27636;52.610;13.244;2022-07-29T20:10:58;21.70;65.90
41944;DHT22;27636;52.610;13.244;2022-07-29T20:16:01;21.50;67.50
41944;DHT22;27636;52.610;13.244;2022-07-29T20:21:07;21.60;66.50
41944;DHT22;27636;52.610;13.244;2022-07-29T20:26:11;21.60;66.70
41944;DHT22;27636;52.610;13.244;2022-07-29T20:31:18;21.50;67.80
41944;DHT22;27636;52.610;13.244;2022-07-29T20:36:21;21.40;67.50
41944;DHT22;27636;52.610;13.244;2022-07-29T20:41:26;21.30;68.10
41944;DHT22;27636;52.610;13.244;2022-07-29T20:46:31;21.30;68.10
41944;DHT22;27636;52.610;13.244;2022-07-29T20:51:35;21.10;68.80
41944;DHT22;27636;52.610;13.244;2022-07-29T20:56:47;21.10;68.60
41944;DHT22;27636;52.610;13.244;2022-07-29T21:01:50;21.20;68.00
41944;DHT22;27636;52.610;13.244;2022-07-29T21:06:54;21.10;68.80
41944;DHT22;27636;52.610;13.244;2022-07-29T21:11:58;21.00;69.10
41944;DHT22;27636;52.610;13.244;2022-07-29T21:17:02;21.10;67.90
41944;DHT22;27636;52.610;13.244;2022-07-29T21:22:09;21.20;68.00
41944;DHT22;27636;52.610;13.244;2022-07-29T21:27:13;21.10;67.70
41944;DHT22;27636;52.610;13.244;2022-07-29T21:32:35;21.10;67.60
41944;DHT22;27636;52.610;13.244;2022-07-29T21:37:41;21.10;67.60
41944;DHT22;27636;52.610;13.244;2022-07-29T21:42:46;21.10;67.30
41944;DHT22;27636;52.610;13.244;2022-07-29T21:47:51;21.10;67.70
41944;DHT22;27636;52.610;13.244;2022-07-29T21:52:54;21.00;67.20
41944;DHT22;27636;52.610;13.244;2022-07-29T21:57:59;21.00;67.70
41944;DHT22;27636;52.610;13.244;2022-07-29T22:03:04;21.00;67.50
41944;DHT22;27636;52.610;13.244;2022-07-29T22:08:08;20.90;67.70
41944;DHT22;27636;52.610;13.244;2022-07-29T22:13:12;20.70;69.00
41944;DHT22;27636;52.610;13.244;2022-07-29T22:18:15;20.50;70.20
41944;DHT22;27636;52.610;13.244;2022-07-29T22:23:23;20.30;70.20
41944;DHT22;27636;52.610;13.244;2022-07-29T22:28:26;20.40;70.20
41944;DHT22;27636;52.610;13.244;2022-07-29T22:33:30;20.20;70.90
41944;DHT22;27636;52.610;13.244;2022-07-29T22:38:33;20.10;71.50
41944;DHT22;27636;52.610;13.244;2022-07-29T22:43:38;20.10;71.50
41944;DHT22;27636;52.610;13.244;2022-07-29T22:48:42;20.00;71.70
41944;DHT22;27636;52.610;13.244;2022-07-29T22:53:45;20.00;72.30
41944;DHT22;27636;52.610;13.244;2022-07-29T22:58:50;19.80;72.70
41944;DHT22;27636;52.610;13.244;2022-07-29T23:03:53;19.80;73.10
41944;DHT22;27636;52.610;13.244;2022-07-29T23:08:57;19.70;73.10
41944;DHT22;27636;52.610;13.244;2022-07-29T23:14:01;19.70;73.40
41944;DHT22;27636;52.610;13.244;2022-07-29T23:19:04;19.60;73.50
41944;DHT22;27636;52.610;13.244;2022-07-29T23:24:07;19.50;74.20
41944;DHT22;27636;52.610;13.244;2022-07-29T23:29:12;19.40;74.90
41944;DHT22;27636;52.610;13.244;2022-07-29T23:34:15;19.50;74.50
41944;DHT22;27636;52.610;13.244;2022-07-29T23:39:19;19.40;74.90
41944;DHT22;27636;52.610;13.244;2022-07-29T23:44:23;19.30;75.70
41944;DHT22;27636;52.610;13.244;2022-07-29T23:49:26;19.30;75.80
41944;DHT22;27636;52.610;13.244;2022-07-29T23:54:29;19.20;76.20
41944;DHT22;27636;52.610;13.244;2022-07-29T23:59:34;19.10;79.00
